Time;durP1;ratioP1;P1;durP2;ratioP2;P2;SDS_P1;SDS_P2;PMS_P1;PMS_P2;Temp;Humidity;BMP_temperature;BMP_pressure;BME280_temperature;BME280_humidity;BME280_pressure;Samples;Min_cycle;Max_cycle;Signal;HPM_P1;HPM_P2
2024/01/06 00:02:07;;;;;;;;;;;6.90;99.90;;;;;;5024013;28;19914;-70
2024/01/06 00:04:33;;;;;;;;;;;6.80;99.90;;;;;;5040222;28;19926;-70
2024/01/06 00:06:58;;;;;;;;;;;6.90;99.90;;;;;;5010667;28;20509;-70
2024/01/06 00:09:24;;;;;;;;;;;6.80;99.90;;;;;;5025156;28;19920;-70
2024/01/06 00:11:49;;;;;;;;;;;6.90;99.90;;;;;;5034366;28;19920;-70
2024/01/06 00:14:15;;;;;;;;;;;6.90;99.90;;;;;;5035472;28;19916;-70
2024/01/06 00:16:40;;;;;;;;;;;6.80;99.90;;;;;;5026809;28;19925;-70
2024/01/06 00:19:06;;;;;;;;;;;6.90;99.90;;;;;;5035325;28;19932;-70
2024/01/06 00:21:31;;;;;;;;;;;6.80;99.90;;;;;;5016404;28;20421;-70
2024/01/06 00:23:57;;;;;;;;;;;6.80;99.90;;;;;;5010213;28;20007;-70
2024/01/06 00:26:24;;;;;;;;;;;6.90;99.90;;;;;;5010008;28;19920;-70
2024/01/06 00:28:49;;;;;;;;;;;6.80;99.90;;;;;;5039241;28;19994;-70
2024/01/06 00:31:17;;;;;;;;;;;6.80;99.90;;;;;;5008689;28;19921;-70
2024/01/06 00:33:42;;;;;;;;;;;6.90;99.90;;;;;;5016954;28;19921;-70
2024/01/06 00:36:08;;;;;;;;;;;6.80;99.90;;;;;;5019015;28;20436;-70
2024/01/06 00:38:35;;;;;;;;;;;6.80;99.90;;;;;;5013274;28;19909;-70
2024/01/06 00:41:00;;;;;;;;;;;6.90;99.90;;;;;;5016059;28;19917;-70
2024/01/06 00:43:26;;;;;;;;;;;6.80;99.90;;;;;;5016169;28;20610;-70
2024/01/06 00:45:51;;;;;;;;;;;6.90;99.90;;;;;;5034462;28;20356;-70
2024/01/06 00:48:17;;;;;;;;;;;6.80;99.90;;;;;;5027703;28;20648;-70
2024/01/06 00:50:42;;;;;;;;;;;6.80;99.90;;;;;;5031021;28;19913;-70
2024/01/06 00:53:08;;;;;;;;;;;6.80;99.90;;;;;;5032362;28;19952;-70
2024/01/06 00:55:33;;;;;;;;;;;6.80;99.90;;;;;;5025407;28;20527;-70
2024/01/06 00:57:59;;;;;;;;;;;6.80;99.90;;;;;;5035507;28;19913;-70
2024/01/06 01:00:27;;;;;;;;;;;6.80;99.90;;;;;;5035934;28;19913;-70
2024/01/06 01:02:52;;;;;;;;;;;6.80;99.90;;;;;;5025913;28;20611;-70
2024/01/06 01:05:18;;;;;;;;;;;6.80;99.90;;;;;;5016736;28;19920;-70
2024/01/06 01:07:43;;;;;;;;;;;6.80;99.90;;;;;;5031985;28;19982;-70
2024/01/06 01:10:09;;;;;;;;;;;6.80;99.90;;;;;;5028411;28;19912;-70
2024/01/06 01:12:35;;;;;;;;;;;6.80;99.90;;;;;;5041211;28;19917;-70
2024/01/06 01:15:00;;;;;;;;;;;6.80;99.90;;;;;;5023063;28;19967;-70
2024/01/06 01:17:26;;;;;;;;;;;6.80;99.90;;;;;;5016566;28;20520;-70
2024/01/06 01:19:51;;;;;;;;;;;6.80;99.90;;;;;;5032744;28;19933;-70
2024/01/06 01:22:17;;;;;;;;;;;6.80;99.90;;;;;;5030970;28;19921;-70
2024/01/06 01:24:43;;;;;;;;;;;6.80;99.90;;;;;;5032403;28;19909;-70
2024/01/06 01:27:08;;;;;;;;;;;6.80;99.90;;;;;;5028862;28;20397;-70
2024/01/06 01:29:34;;;;;;;;;;;6.80;99.90;;;;;;5004659;28;19921;-70
2024/01/06 01:32:00;;;;;;;;;;;6.80;99.90;;;;;;5027505;28;20065;-70
2024/01/06 01:34:25;;;;;;;;;;;6.80;99.90;;;;;;5012780;28;19917;-70
2024/01/06 01:36:51;;;;;;;;;;;6.80;99.90;;;;;;5042038;28;19919;-70
2024/01/06 01:39:16;;;;;;;;;;;6.80;99.90;;;;;;5027662;28;19965;-70
2024/01/06 01:41:42;;;;;;;;;;;6.80;99.90;;;;;;5021910;28;19918;-70
2024/01/06 01:44:07;;;;;;;;;;;6.80;99.90;;;;;;5021869;28;19917;-70
2024/01/06 01:46:33;;;;;;;;;;;6.80;99.90;;;;;;5021914;28;19913;-70
2024/01/06 01:49:00;;;;;;;;;;;6.80;99.90;;;;;;5022494;28;19917;-70
2024/01/06 01:51:29;;;;;;;;;;;6.80;99.90;;;;;;5019978;28;20587;-70
2024/01/06 01:53:59;;;;;;;;;;;6.80;99.90;;;;;;5022446;28;20425;-70
2024/01/06 01:56:25;;;;;;;;;;;6.80;99.90;;;;;;5016428;28;19949;-70
2024/01/06 01:58:51;;;;;;;;;;;6.80;99.90;;;;;;5024749;28;19913;-70
2024/01/06 02:01:17;;;;;;;;;;;6.80;99.90;;;;;;5033102;28;19920;-70
2024/01/06 02:03:45;;;;;;;;;;;6.80;99.90;;;;;;5032951;28;20008;-70
2024/01/06 02:06:11;;;;;;;;;;;6.80;99.90;;;;;;5035817;28;19920;-70
2024/01/06 02:08:37;;;;;;;;;;;6.80;99.90;;;;;;5021774;28;19913;-70
2024/01/06 02:11:03;;;;;;;;;;;6.80;99.90;;;;;;5021910;28;19909;-70
2024/01/06 02:13:35;;;;;;;;;;;6.80;99.90;;;;;;5024907;28;19921;-70
2024/01/06 02:16:02;;;;;;;;;;;6.80;99.90;;;;;;5022730;28;19913;-70
2024/01/06 02:18:27;;;;;;;;;;;6.80;99.90;;;;;;5037045;28;19920;-70
2024/01/06 02:20:57;;;;;;;;;;;6.80;99.90;;;;;;5033187;28;20000;-70
2024/01/06 02:23:22;;;;;;;;;;;6.80;99.90;;;;;;5033884;28;19912;-70
2024/01/06 02:25:48;;;;;;;;;;;6.80;99.90;;;;;;5018233;28;19909;-70
2024/01/06 02:28:13;;;;;;;;;;;6.80;99.90;;;;;;5039233;28;19909;-70
2024/01/06 02:30:39;;;;;;;;;;;6.80;99.90;;;;;;5024535;28;19982;-70
2024/01/06 02:33:04;;;;;;;;;;;6.80;99.90;;;;;;5039583;28;20284;-70
2024/01/06 02:35:30;;;;;;;;;;;6.80;99.90;;;;;;5043587;28;20004;-70
2024/01/06 02:37:55;;;;;;;;;;;6.80;99.90;;;;;;5041710;28;19917;-70
2024/01/06 02:40:21;;;;;;;;;;;6.80;99.90;;;;;;5025484;28;20487;-70
2024/01/06 02:42:46;;;;;;;;;;;6.80;99.90;;;;;;5041213;28;19913;-70
2024/01/06 02:45:12;;;;;;;;;;;6.80;99.90;;;;;;5025449;28;19956;-70
2024/01/06 02:47:37;;;;;;;;;;;6.80;99.90;;;;;;5024797;28;20027;-70
2024/01/06 02:50:03;;;;;;;;;;;6.80;99.90;;;;;;5029815;28;20111;-70
2024/01/06 02:52:28;;;;;;;;;;;6.80;99.90;;;;;;5028892;28;19917;-70
2024/01/06 02:54:54;;;;;;;;;;;6.80;99.90;;;;;;5036409;28;19999;-70
2024/01/06 02:57:19;;;;;;;;;;;6.80;99.90;;;;;;5032922;28;19920;-70
2024/01/06 02:59:45;;;;;;;;;;;6.80;99.90;;;;;;5024536;28;19928;-70
2024/01/06 03:02:11;;;;;;;;;;;6.80;99.90;;;;;;5032996;28;19913;-70
2024/01/06 03:04:36;;;;;;;;;;;6.80;99.90;;;;;;5033120;28;19935;-70
2024/01/06 03:07:02;;;;;;;;;;;6.80;99.90;;;;;;5025224;28;19920;-70
2024/01/06 03:09:27;;;;;;;;;;;6.80;99.90;;;;;;5025166;28;19913;-70
2024/01/06 03:11:53;;;;;;;;;;;6.80;99.90;;;;;;5027666;28;19913;-70
2024/01/06 03:14:18;;;;;;;;;;;6.80;99.90;;;;;;5029908;28;19958;-70
2024/01/06 03:16:44;;;;;;;;;;;6.80;99.90;;;;;;5034640;28;20330;-70
2024/01/06 03:19:09;;;;;;;;;;;6.80;99.90;;;;;;5044689;28;19913;-70
2024/01/06 03:21:35;;;;;;;;;;;6.80;99.90;;;;;;5026951;28;19955;-70
2024/01/06 03:24:00;;;;;;;;;;;6.80;99.90;;;;;;5029081;28;19935;-70
2024/01/06 03:26:26;;;;;;;;;;;6.80;99.90;;;;;;5036605;28;19917;-70
2024/01/06 03:28:51;;;;;;;;;;;6.80;99.90;;;;;;5024542;28;19969;-70
2024/01/06 03:31:17;;;;;;;;;;;6.80;99.90;;;;;;5020944;28;20360;-70
2024/01/06 03:33:43;;;;;;;;;;;6.80;99.90;;;;;;5025662;28;20530;-70
2024/01/06 03:36:09;;;;;;;;;;;6.80;99.90;;;;;;5017885;28;19913;-70
2024/01/06 03:38:35;;;;;;;;;;;6.80;99.90;;;;;;5037666;28;19936;-70
2024/01/06 03:41:00;;;;;;;;;;;6.80;99.90;;;;;;5028292;28;20019;-70
2024/01/06 03:43:26;;;;;;;;;;;6.80;99.90;;;;;;5022908;28;19989;-70
2024/01/06 03:45:51;;;;;;;;;;;6.80;99.90;;;;;;5024501;28;19917;-70
2024/01/06 03:48:17;;;;;;;;;;;6.80;99.90;;;;;;5032854;28;19913;-70
2024/01/06 03:50:42;;;;;;;;;;;6.80;99.90;;;;;;5023946;28;20319;-70
2024/01/06 03:53:08;;;;;;;;;;;6.80;99.90;;;;;;5024437;28;19917;-70
2024/01/06 03:55:33;;;;;;;;;;;6.80;99.90;;;;;;5040421;28;19916;-70
2024/01/06 03:57:59;;;;;;;;;;;6.80;99.90;;;;;;5042962;28;20608;-70
2024/01/06 04:00:25;;;;;;;;;;;6.80;99.90;;;;;;5011849;28;19935;-70
2024/01/06 04:02:51;;;;;;;;;;;6.80;99.90;;;;;;5031941;28;19924;-70
2024/01/06 04:05:16;;;;;;;;;;;6.70;99.90;;;;;;5032370;28;19913;-70
2024/01/06 04:07:42;;;;;;;;;;;6.70;99.90;;;;;;5031780;28;20028;-70
2024/01/06 04:10:08;;;;;;;;;;;6.70;99.90;;;;;;5047078;28;19920;-70
2024/01/06 04:12:33;;;;;;;;;;;6.70;99.90;;;;;;5023458;28;19959;-70
2024/01/06 04:14:59;;;;;;;;;;;6.80;99.90;;;;;;5014128;28;19913;-70
2024/01/06 04:17:26;;;;;;;;;;;6.70;99.90;;;;;;5038867;28;19913;-70
2024/01/06 04:19:52;;;;;;;;;;;6.80;99.90;;;;;;5034145;28;19917;-70
2024/01/06 04:22:18;;;;;;;;;;;6.70;99.90;;;;;;5028967;28;19913;-70
2024/01/06 04:24:43;;;;;;;;;;;6.70;99.90;;;;;;5039851;28;20407;-70
2024/01/06 04:27:09;;;;;;;;;;;6.70;99.90;;;;;;5006017;28;19979;-70
2024/01/06 04:29:35;;;;;;;;;;;6.80;99.90;;;;;;5023237;28;19932;-70
2024/01/06 04:32:00;;;;;;;;;;;6.70;99.90;;;;;;5023822;28;19912;-70
2024/01/06 04:34:26;;;;;;;;;;;6.70;99.90;;;;;;5026905;28;19923;-70
2024/01/06 04:36:51;;;;;;;;;;;6.70;99.90;;;;;;5033973;28;20504;-70
2024/01/06 04:39:17;;;;;;;;;;;6.70;99.90;;;;;;5035056;28;20273;-70
2024/01/06 04:41:42;;;;;;;;;;;6.70;99.90;;;;;;5034518;28;19912;-70
2024/01/06 04:44:08;;;;;;;;;;;6.70;99.90;;;;;;5043240;28;20587;-70
2024/01/06 04:46:33;;;;;;;;;;;6.70;99.90;;;;;;5042673;28;19919;-70
2024/01/06 04:48:59;;;;;;;;;;;6.70;99.90;;;;;;5035418;28;19920;-70
2024/01/06 04:51:25;;;;;;;;;;;6.70;99.90;;;;;;5035503;28;19965;-70
2024/01/06 04:53:50;;;;;;;;;;;6.70;99.90;;;;;;5039156;28;20357;-70
2024/01/06 04:56:16;;;;;;;;;;;6.70;99.90;;;;;;5023343;28;19919;-70
2024/01/06 04:58:41;;;;;;;;;;;6.70;99.90;;;;;;5040420;28;19916;-70
2024/01/06 05:01:07;;;;;;;;;;;6.70;99.90;;;;;;5035880;28;19966;-70
2024/01/06 05:03:32;;;;;;;;;;;6.70;99.90;;;;;;5042725;28;19944;-70
2024/01/06 05:05:57;;;;;;;;;;;6.70;99.90;;;;;;5025555;28;19920;-70
2024/01/06 05:08:24;;;;;;;;;;;6.70;99.90;;;;;;5030930;28;19913;-70
2024/01/06 05:10:52;;;;;;;;;;;6.70;99.90;;;;;;5030845;28;19917;-70
2024/01/06 05:13:17;;;;;;;;;;;6.60;99.90;;;;;;5022634;28;19994;-70
2024/01/06 05:15:43;;;;;;;;;;;6.70;99.90;;;;;;5032216;28;19914;-70
2024/01/06 05:18:09;;;;;;;;;;;6.60;99.90;;;;;;5034417;28;19909;-70
2024/01/06 05:20:34;;;;;;;;;;;6.60;99.90;;;;;;5042258;28;20021;-70
2024/01/06 05:23:00;;;;;;;;;;;6.60;99.90;;;;;;5042918;28;19991;-70
2024/01/06 05:25:26;;;;;;;;;;;6.70;99.90;;;;;;5042999;28;20027;-70
2024/01/06 05:27:51;;;;;;;;;;;6.70;99.90;;;;;;5035684;28;19917;-70
2024/01/06 05:30:18;;;;;;;;;;;6.60;99.90;;;;;;5022224;28;19921;-70
2024/01/06 05:32:43;;;;;;;;;;;6.60;99.90;;;;;;5021994;28;19913;-70
2024/01/06 05:35:09;;;;;;;;;;;6.60;99.90;;;;;;5022894;28;19909;-70
2024/01/06 05:37:34;;;;;;;;;;;6.60;99.90;;;;;;5030499;28;19913;-70
2024/01/06 05:40:02;;;;;;;;;;;6.60;99.90;;;;;;5034533;28;19945;-70
2024/01/06 05:42:28;;;;;;;;;;;6.60;99.90;;;;;;5016108;28;19912;-70
2024/01/06 05:44:54;;;;;;;;;;;6.60;99.90;;;;;;5022868;28;19920;-70
2024/01/06 05:47:20;;;;;;;;;;;6.60;99.90;;;;;;5027383;28;19920;-70
2024/01/06 05:49:45;;;;;;;;;;;6.60;99.90;;;;;;5040050;28;19908;-70
2024/01/06 05:52:11;;;;;;;;;;;6.60;99.90;;;;;;5035679;28;20282;-70
2024/01/06 05:54:39;;;;;;;;;;;6.60;99.90;;;;;;5033462;28;20012;-70
2024/01/06 05:57:05;;;;;;;;;;;6.60;99.90;;;;;;5026496;28;20270;-70
2024/01/06 05:59:32;;;;;;;;;;;6.60;99.90;;;;;;5025966;28;20621;-70
2024/01/06 06:01:58;;;;;;;;;;;6.60;99.90;;;;;;5004798;28;20079;-70
2024/01/06 06:04:23;;;;;;;;;;;6.60;99.90;;;;;;5043727;28;19952;-70
2024/01/06 06:06:49;;;;;;;;;;;6.60;99.90;;;;;;5031479;28;19920;-70
2024/01/06 06:09:15;;;;;;;;;;;6.50;99.90;;;;;;5027908;28;19950;-70
2024/01/06 06:11:40;;;;;;;;;;;6.60;99.90;;;;;;5041386;28;20007;-70
2024/01/06 06:14:06;;;;;;;;;;;6.50;99.90;;;;;;5041954;28;19917;-70
2024/01/06 06:16:31;;;;;;;;;;;6.60;99.90;;;;;;5025813;28;19921;-70
2024/01/06 06:18:58;;;;;;;;;;;6.50;99.90;;;;;;5025005;28;20374;-70
2024/01/06 06:21:23;;;;;;;;;;;6.50;99.90;;;;;;5026669;28;19914;-70
2024/01/06 06:23:49;;;;;;;;;;;6.50;99.90;;;;;;5023930;28;19982;-70
2024/01/06 06:26:15;;;;;;;;;;;6.60;99.90;;;;;;5041939;28;19913;-70
2024/01/06 06:28:40;;;;;;;;;;;6.50;99.90;;;;;;5032947;28;19929;-70
2024/01/06 06:31:07;;;;;;;;;;;6.50;99.90;;;;;;5029714;28;19935;-70
2024/01/06 06:33:33;;;;;;;;;;;6.50;99.90;;;;;;5023430;28;19921;-70
2024/01/06 06:35:58;;;;;;;;;;;6.50;99.90;;;;;;5038211;28;19917;-70
2024/01/06 06:38:27;;;;;;;;;;;6.50;99.90;;;;;;5032293;28;20025;-70
2024/01/06 06:40:53;;;;;;;;;;;6.50;99.90;;;;;;5029561;28;19909;-70
2024/01/06 06:43:18;;;;;;;;;;;6.50;99.90;;;;;;5021537;28;19978;-70
2024/01/06 06:45:44;;;;;;;;;;;6.50;99.90;;;;;;5029577;28;19921;-70
2024/01/06 06:48:10;;;;;;;;;;;6.50;99.90;;;;;;5021569;28;19993;-70
2024/01/06 06:50:36;;;;;;;;;;;6.50;99.90;;;;;;5020984;28;19913;-71
2024/01/06 06:53:01;;;;;;;;;;;6.50;99.90;;;;;;5021650;28;19924;-70
2024/01/06 06:55:27;;;;;;;;;;;6.50;99.90;;;;;;5029833;28;19924;-70
2024/01/06 06:57:52;;;;;;;;;;;6.50;99.90;;;;;;5030312;28;19909;-70
2024/01/06 07:00:18;;;;;;;;;;;6.50;99.90;;;;;;5024841;28;19913;-70
2024/01/06 07:02:44;;;;;;;;;;;6.50;99.90;;;;;;5026274;28;20341;-70
2024/01/06 07:05:09;;;;;;;;;;;6.50;99.90;;;;;;5012174;28;19913;-70
2024/01/06 07:07:35;;;;;;;;;;;6.50;99.90;;;;;;5027925;28;20346;-70
2024/01/06 07:10:01;;;;;;;;;;;6.50;99.90;;;;;;5028508;28;20233;-70
2024/01/06 07:12:27;;;;;;;;;;;6.50;99.90;;;;;;5036044;28;20289;-70
2024/01/06 07:14:52;;;;;;;;;;;6.40;99.90;;;;;;5015514;28;19913;-70
2024/01/06 07:17:18;;;;;;;;;;;6.50;99.90;;;;;;5024829;28;19914;-70
2024/01/06 07:19:44;;;;;;;;;;;6.50;99.90;;;;;;5032406;28;19948;-70
2024/01/06 07:22:10;;;;;;;;;;;6.50;99.90;;;;;;5037424;28;19916;-70
2024/01/06 07:24:36;;;;;;;;;;;6.50;99.90;;;;;;5027431;28;20020;-70
2024/01/06 07:27:03;;;;;;;;;;;6.40;99.90;;;;;;5032728;28;20556;-70
2024/01/06 07:29:28;;;;;;;;;;;6.40;99.90;;;;;;5044512;28;19927;-70
2024/01/06 07:31:54;;;;;;;;;;;6.40;99.90;;;;;;5023344;28;19977;-70
2024/01/06 07:34:19;;;;;;;;;;;6.40;99.90;;;;;;5043932;28;19917;-70
2024/01/06 07:36:45;;;;;;;;;;;6.40;99.90;;;;;;5013682;28;19967;-70
2024/01/06 07:39:10;;;;;;;;;;;6.50;99.90;;;;;;5029096;28;20054;-70
2024/01/06 07:41:36;;;;;;;;;;;6.40;99.90;;;;;;5035263;28;19936;-70
2024/01/06 07:44:02;;;;;;;;;;;6.40;99.90;;;;;;5022196;28;20332;-70
2024/01/06 07:46:28;;;;;;;;;;;6.40;99.90;;;;;;5032136;28;19974;-70
2024/01/06 07:48:54;;;;;;;;;;;6.40;99.90;;;;;;5031749;28;19912;-70
2024/01/06 07:51:19;;;;;;;;;;;6.40;99.90;;;;;;5030082;28;19919;-73
2024/01/06 07:53:45;;;;;;;;;;;6.40;99.90;;;;;;5033913;28;19928;-73
2024/01/06 07:56:11;;;;;;;;;;;6.40;99.90;;;;;;5024367;28;19929;-73
2024/01/06 07:58:36;;;;;;;;;;;6.40;99.90;;;;;;5031966;28;19913;-73
2024/01/06 08:01:02;;;;;;;;;;;6.40;99.90;;;;;;5032573;28;19916;-73
2024/01/06 08:03:27;;;;;;;;;;;6.40;99.90;;;;;;5014045;28;19916;-73
2024/01/06 08:05:54;;;;;;;;;;;6.40;99.90;;;;;;5031639;28;20007;-73
2024/01/06 08:08:19;;;;;;;;;;;6.40;99.90;;;;;;5014182;28;20297;-73
2024/01/06 08:10:45;;;;;;;;;;;6.40;99.90;;;;;;5038906;28;19924;-73
2024/01/06 08:13:11;;;;;;;;;;;6.40;99.90;;;;;;5005884;28;19945;-73
2024/01/06 08:15:37;;;;;;;;;;;6.40;99.90;;;;;;5006351;28;19952;-73
2024/01/06 08:18:03;;;;;;;;;;;6.40;99.90;;;;;;5024455;28;20580;-73
2024/01/06 08:20:28;;;;;;;;;;;6.40;99.90;;;;;;5014572;28;19909;-73
2024/01/06 08:22:54;;;;;;;;;;;6.40;99.90;;;;;;5032043;28;19974;-73
2024/01/06 08:25:20;;;;;;;;;;;6.40;99.90;;;;;;5024071;28;19949;-73
2024/01/06 08:27:46;;;;;;;;;;;6.40;99.90;;;;;;5023780;28;19956;-73
2024/01/06 08:30:12;;;;;;;;;;;6.40;99.90;;;;;;5038595;28;19970;-73
2024/01/06 08:32:37;;;;;;;;;;;6.40;99.90;;;;;;5031766;28;20361;-72
2024/01/06 08:35:03;;;;;;;;;;;6.30;99.90;;;;;;5018465;28;19916;-73
2024/01/06 08:37:29;;;;;;;;;;;6.40;99.90;;;;;;5028290;28;20264;-73
2024/01/06 08:39:54;;;;;;;;;;;6.30;99.90;;;;;;5036234;28;20430;-73
2024/01/06 08:42:20;;;;;;;;;;;6.30;99.90;;;;;;5030342;28;19913;-72
2024/01/06 08:44:46;;;;;;;;;;;6.30;99.90;;;;;;5039742;28;20451;-73
2024/01/06 08:47:11;;;;;;;;;;;6.30;99.90;;;;;;5012701;28;19959;-73
2024/01/06 08:49:37;;;;;;;;;;;6.30;99.90;;;;;;5042293;28;20363;-73
2024/01/06 08:52:03;;;;;;;;;;;6.40;99.90;;;;;;5027730;28;19913;-73
2024/01/06 08:54:29;;;;;;;;;;;6.30;99.90;;;;;;5020961;28;19938;-73
2024/01/06 08:56:54;;;;;;;;;;;6.30;99.90;;;;;;5022382;28;19913;-73
2024/01/06 08:59:20;;;;;;;;;;;6.30;99.90;;;;;;5037657;28;20321;-73
2024/01/06 09:01:46;;;;;;;;;;;6.30;99.90;;;;;;5033320;28;19916;-73
2024/01/06 09:04:12;;;;;;;;;;;6.30;99.90;;;;;;5036737;28;19960;-73
2024/01/06 09:06:38;;;;;;;;;;;6.30;99.90;;;;;;5027572;28;19919;-73
2024/01/06 09:09:03;;;;;;;;;;;6.30;99.90;;;;;;5031347;28;19913;-73
2024/01/06 09:11:29;;;;;;;;;;;6.30;99.90;;;;;;5018937;28;19913;-73
2024/01/06 09:13:54;;;;;;;;;;;6.30;99.90;;;;;;5023927;28;20365;-73
2024/01/06 09:16:20;;;;;;;;;;;6.30;99.90;;;;;;5008771;28;20421;-73
2024/01/06 09:18:46;;;;;;;;;;;6.30;99.90;;;;;;5026338;28;20436;-73
2024/01/06 09:21:11;;;;;;;;;;;6.30;99.90;;;;;;5028577;28;19919;-73
2024/01/06 09:23:37;;;;;;;;;;;6.30;99.90;;;;;;5034560;28;19919;-73
2024/01/06 09:26:02;;;;;;;;;;;6.30;99.90;;;;;;5031716;28;19989;-72
2024/01/06 09:28:28;;;;;;;;;;;6.30;99.90;;;;;;5029977;28;19913;-73
2024/01/06 09:30:55;;;;;;;;;;;6.30;99.90;;;;;;5007943;28;19991;-73
2024/01/06 09:33:21;;;;;;;;;;;6.30;99.90;;;;;;5034753;28;20322;-73
2024/01/06 09:35:47;;;;;;;;;;;6.30;99.90;;;;;;5006257;28;19913;-73
2024/01/06 09:38:13;;;;;;;;;;;6.30;99.90;;;;;;5031333;28;20000;-73
2024/01/06 09:40:43;;;;;;;;;;;6.30;99.90;;;;;;5004888;28;20326;-73
2024/01/06 09:43:09;;;;;;;;;;;6.30;99.90;;;;;;5031134;28;20433;-73
2024/01/06 09:45:34;;;;;;;;;;;6.30;99.90;;;;;;5030935;28;20011;-73
2024/01/06 09:48:02;;;;;;;;;;;6.20;99.90;;;;;;5023175;28;19916;-73
2024/01/06 09:50:30;;;;;;;;;;;6.30;99.90;;;;;;5030875;28;20016;-73
2024/01/06 09:53:03;;;;;;;;;;;6.20;99.90;;;;;;5030603;28;19917;-73
2024/01/06 09:55:29;;;;;;;;;;;6.20;99.90;;;;;;5023117;28;19966;-73
2024/01/06 09:57:55;;;;;;;;;;;6.30;99.90;;;;;;5033208;28;19917;-73
2024/01/06 10:00:20;;;;;;;;;;;6.20;99.90;;;;;;5027941;28;19920;-72
2024/01/06 10:02:50;;;;;;;;;;;6.30;99.90;;;;;;5038811;28;19913;-73
2024/01/06 10:05:17;;;;;;;;;;;6.30;99.90;;;;;;5035641;28;19913;-73
2024/01/06 10:07:46;;;;;;;;;;;6.20;99.90;;;;;;5033414;28;19938;-73
2024/01/06 10:10:11;;;;;;;;;;;6.20;99.90;;;;;;5027660;28;19923;-73
2024/01/06 10:12:41;;;;;;;;;;;6.20;99.90;;;;;;5033848;28;19912;-73
2024/01/06 10:15:07;;;;;;;;;;;6.20;99.90;;;;;;5041473;28;19917;-73
2024/01/06 10:17:33;;;;;;;;;;;6.20;99.90;;;;;;5017603;28;19951;-73
2024/01/06 10:19:59;;;;;;;;;;;6.20;99.90;;;;;;5022120;28;20310;-71
2024/01/06 10:22:25;;;;;;;;;;;6.20;99.90;;;;;;5030520;28;20383;-65
2024/01/06 10:24:50;;;;;;;;;;;6.30;99.90;;;;;;5032084;28;19913;-62
2024/01/06 10:27:16;;;;;;;;;;;6.50;99.90;;;;;;5028593;28;19920;-61
2024/01/06 10:29:42;;;;;;;;;;;6.40;99.90;;;;;;5029484;28;19998;-60
2024/01/06 10:32:08;;;;;;;;;;;6.20;99.90;;;;;;5033701;28;19973;-60
2024/01/06 10:34:33;;;;;;;;;;;6.00;99.90;;;;;;5037332;28;20363;-62
2024/01/06 10:36:59;;;;;;;;;;;5.80;99.90;;;;;;5032888;28;19909;-60
2024/01/06 10:39:25;;;;;;;;;;;5.60;99.90;;;;;;5031556;28;20000;-62
2024/01/06 10:41:52;;;;;;;;;;;5.60;99.90;;;;;;5026077;28;19913;-62
2024/01/06 10:44:17;;;;;;;;;;;5.60;99.90;;;;;;5038372;28;19913;-62
2024/01/06 10:46:44;;;;;;;;;;;5.70;99.90;;;;;;5043505;28;19913;-62
2024/01/06 10:49:10;;;;;;;;;;;5.60;99.90;;;;;;5032421;28;19989;-62
2024/01/06 10:51:37;;;;;;;;;;;5.70;99.90;;;;;;5024055;28;20331;-61
2024/01/06 10:54:02;;;;;;;;;;;5.70;99.90;;;;;;5039729;28;19917;-62
2024/01/06 10:56:29;;;;;;;;;;;5.70;99.90;;;;;;5039360;28;20288;-62
2024/01/06 10:58:56;;;;;;;;;;;5.70;99.90;;;;;;5033109;28;19988;-62
2024/01/06 11:01:24;;;;;;;;;;;5.70;99.90;;;;;;5033652;28;19924;-62
2024/01/06 11:03:50;;;;;;;;;;;5.80;99.90;;;;;;5027329;28;19994;-62
2024/01/06 11:06:17;;;;;;;;;;;5.80;99.90;;;;;;5031021;28;19913;-62
2024/01/06 11:09:01;;;;;;;;;;;5.80;99.90;;;;;;5032308;28;19948;-62
2024/01/06 11:11:27;;;;;;;;;;;5.80;99.90;;;;;;5038445;28;19914;-62
2024/01/06 11:13:52;;;;;;;;;;;5.80;99.90;;;;;;5043364;28;19928;-62
2024/01/06 11:16:33;;;;;;;;;;;5.80;99.90;;;;;;5030454;28;20388;-62
2024/01/06 11:18:59;;;;;;;;;;;5.80;99.90;;;;;;5031813;28;20374;-62
2024/01/06 11:21:28;;;;;;;;;;;5.80;99.90;;;;;;5029727;28;19913;-62
2024/01/06 11:24:06;;;;;;;;;;;5.80;99.90;;;;;;5032995;28;20369;-62
2024/01/06 11:26:31;;;;;;;;;;;5.80;99.90;;;;;;5032155;28;19912;-62
2024/01/06 11:28:58;;;;;;;;;;;5.80;99.90;;;;;;5033685;28;19916;-62
2024/01/06 11:31:28;;;;;;;;;;;5.80;99.90;;;;;;5035059;28;19913;-62
2024/01/06 11:33:54;;;;;;;;;;;5.80;99.90;;;;;;5024707;28;20285;-62
2024/01/06 11:36:20;;;;;;;;;;;5.80;99.90;;;;;;5029208;28;19912;-63
2024/01/06 11:38:50;;;;;;;;;;;5.80;99.90;;;;;;5015761;28;20327;-62
2024/01/06 11:41:34;;;;;;;;;;;5.80;99.90;;;;;;5028829;28;19924;-62
2024/01/06 11:43:59;;;;;;;;;;;5.80;99.90;;;;;;5027519;28;19912;-62
2024/01/06 11:46:26;;;;;;;;;;;5.90;99.90;;;;;;5018696;28;19913;-62
2024/01/06 11:48:53;;;;;;;;;;;5.80;99.90;;;;;;5039516;28;19917;-62
2024/01/06 11:51:18;;;;;;;;;;;5.80;99.90;;;;;;5031256;28;19943;-62
2024/01/06 11:53:45;;;;;;;;;;;5.90;99.90;;;;;;5023793;28;19921;-62
2024/01/06 11:56:11;;;;;;;;;;;5.90;99.90;;;;;;5043218;28;19923;-63
2024/01/06 11:58:39;;;;;;;;;;;5.80;99.90;;;;;;5026796;28;19917;-62
2024/01/06 12:01:04;;;;;;;;;;;5.80;99.90;;;;;;5018281;28;20054;-62
2024/01/06 12:03:30;;;;;;;;;;;5.90;99.90;;;;;;5035003;28;20031;-62
2024/01/06 12:06:00;;;;;;;;;;;5.90;99.90;;;;;;5042916;28;19909;-63
2024/01/06 12:08:26;;;;;;;;;;;5.90;99.90;;;;;;5037973;28;20045;-62
2024/01/06 12:11:01;;;;;;;;;;;5.90;99.90;;;;;;5028427;28;19920;-62
2024/01/06 12:13:26;;;;;;;;;;;5.80;99.90;;;;;;5037337;28;19924;-62
2024/01/06 12:15:52;;;;;;;;;;;5.80;99.90;;;;;;5030637;28;19917;-62
2024/01/06 12:18:17;;;;;;;;;;;5.80;99.90;;;;;;5024930;28;19920;-62
2024/01/06 12:20:45;;;;;;;;;;;5.90;99.90;;;;;;5022535;28;19913;-62
2024/01/06 12:23:10;;;;;;;;;;;5.80;99.90;;;;;;5023096;28;19920;-62
2024/01/06 12:25:36;;;;;;;;;;;5.90;99.90;;;;;;5031026;28;19939;-63
2024/01/06 12:28:02;;;;;;;;;;;5.90;99.90;;;;;;5013247;28;19917;-62
2024/01/06 12:30:27;;;;;;;;;;;5.80;99.90;;;;;;5022631;28;19973;-62
2024/01/06 12:32:53;;;;;;;;;;;5.80;99.90;;;;;;5038661;28;19927;-62
2024/01/06 12:35:19;;;;;;;;;;;5.80;99.90;;;;;;5023008;28;19920;-62
2024/01/06 12:37:45;;;;;;;;;;;5.80;99.90;;;;;;5030473;28;20405;-62
2024/01/06 12:40:12;;;;;;;;;;;5.80;99.90;;;;;;5035190;28;19995;-62
2024/01/06 12:42:38;;;;;;;;;;;5.80;99.90;;;;;;5008493;28;19917;-62
2024/01/06 12:45:04;;;;;;;;;;;5.80;99.90;;;;;;5025726;28;20298;-62
2024/01/06 12:47:29;;;;;;;;;;;5.80;99.90;;;;;;5034049;28;20690;-62
2024/01/06 12:49:55;;;;;;;;;;;5.80;99.90;;;;;;5025523;28;19913;-63
2024/01/06 12:52:20;;;;;;;;;;;5.80;99.90;;;;;;5028308;28;20318;-62
2024/01/06 12:54:46;;;;;;;;;;;5.80;99.90;;;;;;5039310;28;20349;-62
2024/01/06 12:57:12;;;;;;;;;;;5.80;99.90;;;;;;5028917;28;19924;-62
2024/01/06 12:59:37;;;;;;;;;;;5.80;99.90;;;;;;5022340;28;19916;-62
2024/01/06 13:02:03;;;;;;;;;;;5.80;99.90;;;;;;5030077;28;19921;-63
2024/01/06 13:04:28;;;;;;;;;;;5.80;99.90;;;;;;5030490;28;19945;-62
2024/01/06 13:06:54;;;;;;;;;;;5.80;99.90;;;;;;5021604;28;19949;-63
2024/01/06 13:09:21;;;;;;;;;;;5.80;99.90;;;;;;5015841;28;19920;-62
2024/01/06 13:11:50;;;;;;;;;;;5.80;99.90;;;;;;5001987;28;19910;-62
2024/01/06 13:14:16;;;;;;;;;;;5.80;99.90;;;;;;5021844;28;20020;-62
2024/01/06 13:16:42;;;;;;;;;;;5.80;99.90;;;;;;5021396;28;20008;-62
2024/01/06 13:19:07;;;;;;;;;;;5.80;99.90;;;;;;5029820;28;19993;-62
2024/01/06 13:21:33;;;;;;;;;;;5.80;99.90;;;;;;5028577;28;20358;-62
2024/01/06 13:24:02;;;;;;;;;;;5.80;99.90;;;;;;5038699;28;20389;-62
2024/01/06 13:26:28;;;;;;;;;;;5.80;99.90;;;;;;5018929;28;19912;-62
2024/01/06 13:28:53;;;;;;;;;;;5.80;99.90;;;;;;5015194;28;19914;-63
2024/01/06 13:31:19;;;;;;;;;;;5.80;99.90;;;;;;5028351;28;19959;-62
2024/01/06 13:33:44;;;;;;;;;;;5.80;99.90;;;;;;5021759;28;19925;-62
2024/01/06 13:36:12;;;;;;;;;;;5.80;99.90;;;;;;5021228;28;20411;-62
2024/01/06 13:38:37;;;;;;;;;;;5.70;99.90;;;;;;5006266;28;20808;-62
2024/01/06 13:41:03;;;;;;;;;;;5.80;99.90;;;;;;5021702;28;19917;-62
2024/01/06 13:43:29;;;;;;;;;;;5.80;99.90;;;;;;5020777;27;19920;-62
2024/01/06 13:45:54;;;;;;;;;;;5.70;99.90;;;;;;5020629;28;19921;-62
2024/01/06 13:48:20;;;;;;;;;;;5.70;99.90;;;;;;5021563;28;20457;-63
2024/01/06 13:50:46;;;;;;;;;;;5.70;99.90;;;;;;5022001;28;19913;-63
2024/01/06 13:53:11;;;;;;;;;;;5.70;99.90;;;;;;5029988;28;19921;-63
2024/01/06 13:55:37;;;;;;;;;;;5.70;99.90;;;;;;5030330;28;19917;-62
2024/01/06 13:58:04;;;;;;;;;;;5.70;99.90;;;;;;5045894;27;19917;-62
2024/01/06 14:00:29;;;;;;;;;;;5.70;99.90;;;;;;5034294;27;19917;-62
2024/01/06 14:02:56;;;;;;;;;;;5.70;99.90;;;;;;5026818;28;19913;-62
2024/01/06 14:05:22;;;;;;;;;;;5.70;99.90;;;;;;5033163;28;19917;-62
2024/01/06 14:07:50;;;;;;;;;;;5.70;99.90;;;;;;5019150;28;19913;-63
2024/01/06 14:10:15;;;;;;;;;;;5.70;99.90;;;;;;5020966;28;19913;-62
2024/01/06 14:12:41;;;;;;;;;;;5.70;99.90;;;;;;5020905;28;19916;-62
2024/01/06 14:15:07;;;;;;;;;;;5.70;99.90;;;;;;5021659;28;20400;-62
2024/01/06 14:17:33;;;;;;;;;;;5.70;99.90;;;;;;5021037;28;20012;-62
2024/01/06 14:19:59;;;;;;;;;;;5.60;99.90;;;;;;5019632;28;19960;-62
2024/01/06 14:22:24;;;;;;;;;;;5.60;99.90;;;;;;5022450;28;19916;-62
2024/01/06 14:24:50;;;;;;;;;;;5.60;99.90;;;;;;5019842;28;20351;-63